Time;durP1;ratioP1;P1;durP2;ratioP2;P2;SDS_P1;SDS_P2;PMS_P1;PMS_P2;Temp;Humidity;BMP_temperature;BMP_pressure;BME280_temperature;BME280_humidity;BME280_pressure;Samples;Min_cycle;Max_cycle;Signal;HPM_P1;HPM_P2
2023/06/04 00:02:02;;;;;;;6.38;1.83;;;11.30;99.90;;;;;;5035063;28;20056;-81
2023/06/04 00:04:27;;;;;;;8.15;1.73;;;11.20;99.90;;;;;;5016626;28;20506;-81
2023/06/04 00:06:54;;;;;;;4.93;1.83;;;11.20;99.90;;;;;;5034000;28;20040;-81
2023/06/04 00:09:20;;;;;;;4.35;1.50;;;11.20;99.90;;;;;;5014477;28;20037;-81
2023/06/04 00:11:45;;;;;;;5.22;1.63;;;11.10;99.90;;;;;;5032880;28;20551;-82
2023/06/04 00:14:12;;;;;;;3.58;2.00;;;11.10;99.90;;;;;;5032999;28;20406;-81
2023/06/04 00:16:38;;;;;;;5.65;1.80;;;11.00;99.90;;;;;;5035739;28;20662;-81
2023/06/04 00:19:04;;;;;;;4.15;1.98;;;11.00;99.90;;;;;;5030584;28;20046;-82
2023/06/04 00:21:29;;;;;;;4.95;1.83;;;11.00;99.90;;;;;;5015730;28;20038;-81
2023/06/04 00:23:55;;;;;;;4.35;1.77;;;11.00;99.90;;;;;;5032610;28;20601;-82
2023/06/04 00:26:21;;;;;;;5.68;1.95;;;10.90;99.90;;;;;;5018312;28;20045;-81
2023/06/04 00:28:47;;;;;;;2.22;1.85;;;10.90;99.90;;;;;;5014958;28;20507;-81
2023/06/04 00:31:12;;;;;;;5.22;2.42;;;10.90;99.90;;;;;;5016596;28;20037;-82
2023/06/04 00:33:41;;;;;;;5.03;2.33;;;10.90;99.90;;;;;;5015300;28;20143;-81
2023/06/04 00:36:07;;;;;;;5.38;2.60;;;10.80;99.90;;;;;;5031000;28;20045;-82
2023/06/04 00:38:33;;;;;;;4.55;2.20;;;10.90;99.90;;;;;;5016180;28;20049;-81
2023/06/04 00:40:59;;;;;;;5.47;2.20;;;10.80;99.90;;;;;;5030365;28;20045;-82
2023/06/04 00:43:27;;;;;;;7.07;2.75;;;10.80;99.90;;;;;;5017517;28;20045;-82
2023/06/04 00:45:53;;;;;;;7.38;3.22;;;10.80;99.90;;;;;;5013200;28;20028;-82
2023/06/04 00:48:20;;;;;;;7.05;2.95;;;10.70;99.90;;;;;;5032812;28;20041;-82
2023/06/04 00:50:48;;;;;;;4.00;2.42;;;10.70;99.90;;;;;;5017016;28;20040;-82
2023/06/04 00:53:15;;;;;;;9.52;3.15;;;10.70;99.90;;;;;;5031290;28;20456;-81
2023/06/04 00:55:41;;;;;;;5.32;2.58;;;10.70;99.90;;;;;;5032445;28;20045;-82
2023/06/04 00:58:09;;;;;;;7.47;3.30;;;10.70;99.90;;;;;;5017739;28;20041;-82
2023/06/04 01:00:36;;;;;;;6.18;2.85;;;10.60;99.90;;;;;;5014979;28;20030;-82
2023/06/04 01:03:11;;;;;;;4.70;2.88;;;10.60;99.90;;;;;;5029836;28;20508;-82
2023/06/04 01:05:42;;;;;;;8.27;2.85;;;10.60;99.90;;;;;;5029340;28;20037;-82
2023/06/04 01:08:09;;;;;;;6.55;2.45;;;10.60;99.90;;;;;;5029800;28;20099;-82
2023/06/04 01:10:35;;;;;;;7.95;2.90;;;10.50;99.90;;;;;;5032367;28;20061;-82
2023/06/04 01:13:01;;;;;;;7.50;2.70;;;10.50;99.90;;;;;;5033564;28;20045;-82
2023/06/04 01:15:27;;;;;;;7.15;2.80;;;10.50;99.90;;;;;;5030790;28;20247;-82
2023/06/04 01:18:02;;;;;;;6.05;3.10;;;10.50;99.90;;;;;;5015787;28;20038;-81
2023/06/04 01:20:36;;;;;;;5.72;3.03;;;10.40;99.90;;;;;;5033582;28;20037;-81
2023/06/04 01:23:45;;;;;;;9.13;2.80;;;10.40;99.90;;;;;;5030744;28;20045;-81
2023/06/04 01:26:11;;;;;;;8.85;3.40;;;10.40;99.90;;;;;;5023113;28;20553;-81
2023/06/04 01:28:38;;;;;;;9.75;3.60;;;10.40;99.90;;;;;;5014748;28;20499;-81
2023/06/04 01:31:08;;;;;;;7.40;3.67;;;10.40;99.90;;;;;;5030870;28;20099;-81
2023/06/04 01:33:34;;;;;;;8.50;3.35;;;10.40;99.90;;;;;;5028410;28;20036;-81
2023/06/04 01:36:00;;;;;;;6.55;3.60;;;10.30;99.90;;;;;;5016937;28;20037;-81
2023/06/04 01:38:27;;;;;;;8.02;3.85;;;10.30;99.90;;;;;;5053802;28;20033;-80
2023/06/04 01:40:56;;;;;;;7.75;3.83;;;10.30;99.90;;;;;;5036733;28;20033;-80
2023/06/04 01:43:23;;;;;;;9.15;3.80;;;10.30;99.90;;;;;;5034260;28;20588;-81
2023/06/04 01:45:51;;;;;;;10.20;4.13;;;10.30;99.90;;;;;;5035214;28;20061;-80
2023/06/04 01:48:20;;;;;;;10.73;4.00;;;10.30;99.90;;;;;;5036383;28;20585;-81
2023/06/04 01:50:46;;;;;;;8.77;3.95;;;10.30;99.90;;;;;;5035842;28;20026;-80
2023/06/04 01:53:11;;;;;;;9.85;4.40;;;10.20;99.90;;;;;;5031608;28;20045;-81
2023/06/04 01:55:37;;;;;;;7.00;4.25;;;10.20;99.90;;;;;;5036432;28;20072;-81
2023/06/04 01:58:03;;;;;;;8.60;4.10;;;10.20;99.90;;;;;;5052239;28;20049;-79
2023/06/04 02:00:29;;;;;;;6.35;4.10;;;10.20;99.90;;;;;;5051397;28;20022;-80
2023/06/04 02:02:55;;;;;;;8.43;3.97;;;10.20;99.90;;;;;;5052331;28;20052;-82
2023/06/04 02:05:21;;;;;;;13.27;4.43;;;10.20;99.90;;;;;;5051941;28;20101;-81
2023/06/04 02:07:47;;;;;;;8.77;4.43;;;10.20;99.90;;;;;;5051325;28;20076;-80
2023/06/04 02:10:17;;;;;;;8.63;5.03;;;10.10;99.90;;;;;;5048967;28;20056;-81
2023/06/04 02:12:54;;;;;;;10.48;4.70;;;10.10;99.90;;;;;;5035839;28;20048;-79
2023/06/04 02:15:20;;;;;;;8.30;4.15;;;10.00;99.90;;;;;;5063656;28;20024;-80
2023/06/04 02:17:47;;;;;;;8.70;4.60;;;10.00;99.90;;;;;;5051645;28;20052;-80
2023/06/04 02:20:13;;;;;;;9.75;4.90;;;9.90;99.90;;;;;;5036069;28;20040;-81
2023/06/04 02:22:39;;;;;;;11.95;5.70;;;9.80;99.90;;;;;;5013214;28;20456;-82
2023/06/04 02:25:05;;;;;;;11.93;5.75;;;9.90;99.90;;;;;;5020160;28;20473;-81
2023/06/04 02:27:31;;;;;;;10.80;5.80;;;9.80;99.90;;;;;;5032380;28;20124;-80
2023/06/04 02:29:57;;;;;;;9.82;5.57;;;9.80;99.90;;;;;;5039211;28;20084;-80
2023/06/04 02:32:23;;;;;;;12.57;5.93;;;9.80;99.90;;;;;;5022529;28;20041;-80
2023/06/04 02:34:52;;;;;;;13.60;6.50;;;9.80;99.90;;;;;;5020659;28;20077;-81
2023/06/04 02:37:20;;;;;;;12.18;6.30;;;9.80;99.90;;;;;;5020129;28;20049;-80
2023/06/04 02:39:46;;;;;;;10.00;6.55;;;9.80;99.90;;;;;;5037148;28;20076;-80
2023/06/04 02:42:12;;;;;;;12.35;6.80;;;9.70;99.90;;;;;;5036160;28;20089;-80
2023/06/04 02:44:37;;;;;;;16.48;6.75;;;9.70;99.90;;;;;;5037643;28;20057;-80
2023/06/04 02:47:03;;;;;;;8.52;6.07;;;9.80;99.90;;;;;;5019351;28;20038;-79
2023/06/04 02:49:30;;;;;;;13.95;6.70;;;9.70;99.90;;;;;;5035261;28;20528;-80
2023/06/04 02:51:55;;;;;;;13.32;6.18;;;9.70;99.90;;;;;;5019756;28;20067;-80
2023/06/04 02:54:21;;;;;;;8.93;5.68;;;9.70;99.90;;;;;;5032168;28;20053;-81
2023/06/04 02:56:48;;;;;;;10.60;6.05;;;9.70;99.90;;;;;;5034360;28;20049;-80
2023/06/04 02:59:15;;;;;;;13.48;6.25;;;9.70;99.90;;;;;;5038270;28;20025;-80
2023/06/04 03:01:41;;;;;;;13.18;6.18;;;9.70;99.90;;;;;;5018555;28;20030;-80
2023/06/04 03:04:09;;;;;;;14.57;7.22;;;9.70;99.90;;;;;;5019109;28;20041;-79
2023/06/04 03:06:38;;;;;;;12.48;5.68;;;9.70;99.90;;;;;;5031147;28;20531;-80
2023/06/04 03:09:04;;;;;;;11.38;6.10;;;9.60;99.90;;;;;;5031353;28;20054;-80
2023/06/04 03:11:30;;;;;;;16.10;6.75;;;9.60;99.90;;;;;;5018636;28;20103;-79
2023/06/04 03:13:55;;;;;;;14.57;6.78;;;9.60;99.90;;;;;;5044832;28;20037;-81
2023/06/04 03:16:21;;;;;;;13.43;6.15;;;9.60;99.90;;;;;;5049911;28;20080;-81
2023/06/04 03:18:47;;;;;;;15.82;6.45;;;9.60;99.90;;;;;;5052590;28;20045;-81
2023/06/04 03:21:13;;;;;;;15.23;6.25;;;9.60;99.90;;;;;;5052000;28;20045;-81
2023/06/04 03:23:40;;;;;;;16.15;6.40;;;9.70;99.90;;;;;;5051834;28;20068;-81
2023/06/04 03:26:05;;;;;;;15.63;6.60;;;9.70;99.90;;;;;;5038732;28;20045;-81
2023/06/04 03:28:32;;;;;;;14.70;6.95;;;9.70;99.90;;;;;;5037879;28;20040;-81
2023/06/04 03:30:59;;;;;;;11.75;6.80;;;9.70;99.90;;;;;;5054414;28;20057;-81
2023/06/04 03:33:24;;;;;;;14.48;6.97;;;9.70;99.90;;;;;;5037621;28;20052;-81
2023/06/04 03:35:52;;;;;;;14.23;6.70;;;9.70;99.90;;;;;;5052693;28;20030;-81
2023/06/04 03:38:21;;;;;;;16.30;8.13;;;9.70;99.90;;;;;;5054913;28;20049;-80
2023/06/04 03:40:49;;;;;;;14.63;7.57;;;9.80;99.90;;;;;;5055232;28;20041;-81
2023/06/04 03:43:15;;;;;;;13.43;6.93;;;9.80;99.90;;;;;;5038826;28;20041;-80
2023/06/04 03:45:42;;;;;;;18.13;7.57;;;9.80;99.90;;;;;;5055276;28;20026;-81
2023/06/04 03:48:07;;;;;;;14.23;6.68;;;9.80;99.90;;;;;;5053557;28;20088;-82
2023/06/04 03:50:33;;;;;;;14.43;6.68;;;9.90;99.90;;;;;;5054206;28;20033;-82
2023/06/04 03:52:59;;;;;;;17.45;7.32;;;9.90;99.90;;;;;;5051892;28;20032;-81
2023/06/04 03:55:25;;;;;;;15.15;7.00;;;9.90;99.90;;;;;;5054747;28;20033;-81
2023/06/04 03:57:51;;;;;;;15.30;6.68;;;10.00;99.90;;;;;;5055147;28;20037;-81
2023/06/04 04:00:18;;;;;;;16.08;7.35;;;9.90;99.90;;;;;;5050370;28;20038;-80
2023/06/04 04:02:44;;;;;;;17.67;6.60;;;10.00;99.90;;;;;;5052669;28;20041;-81
2023/06/04 04:05:11;;;;;;;19.27;6.80;;;10.00;99.90;;;;;;5027915;28;20046;-82
2023/06/04 04:07:36;;;;;;;14.52;6.25;;;10.00;99.90;;;;;;5015965;28;20045;-82
2023/06/04 04:10:02;;;;;;;15.68;6.53;;;10.00;99.90;;;;;;5034503;28;20045;-82
2023/06/04 04:12:28;;;;;;;15.13;6.20;;;10.10;99.90;;;;;;5003040;28;20049;-82
2023/06/04 04:14:54;;;;;;;11.73;6.57;;;10.20;99.90;;;;;;5018965;28;20037;-82
2023/06/04 04:17:21;;;;;;;12.50;6.07;;;10.20;99.90;;;;;;5018366;28;20033;-80
2023/06/04 04:19:47;;;;;;;14.15;5.28;;;10.30;99.90;;;;;;5021605;28;20378;-80
2023/06/04 04:22:17;;;;;;;11.07;5.65;;;10.30;99.90;;;;;;5035768;28;20198;-80
2023/06/04 04:24:43;;;;;;;12.40;5.30;;;10.40;99.90;;;;;;5018251;28;20120;-81
2023/06/04 04:27:15;;;;;;;12.43;5.80;;;10.40;99.90;;;;;;5021195;28;20077;-80
2023/06/04 04:29:42;;;;;;;11.40;5.93;;;10.50;99.90;;;;;;5020444;28;20072;-80
2023/06/04 04:32:10;;;;;;;11.73;6.90;;;10.50;99.90;;;;;;5038672;28;20089;-80
2023/06/04 04:34:39;;;;;;;13.88;5.85;;;10.60;99.90;;;;;;5037151;28;20476;-80
2023/06/04 04:37:08;;;;;;;14.45;6.40;;;10.70;99.90;;;;;;5018494;28;20077;-80
2023/06/04 04:39:35;;;;;;;18.30;6.32;;;10.70;99.90;;;;;;5032805;28;20089;-80
2023/06/04 04:42:01;;;;;;;20.15;6.72;;;10.80;99.90;;;;;;5035872;28;20065;-80
2023/06/04 04:44:27;;;;;;;19.23;6.43;;;10.90;99.90;;;;;;5020208;28;20718;-80
2023/06/04 04:46:52;;;;;;;16.70;6.57;;;11.00;99.90;;;;;;5034481;28;20191;-81
2023/06/04 04:49:18;;;;;;;12.05;5.60;;;11.00;99.90;;;;;;5034471;28;20029;-81
2023/06/04 04:51:44;;;;;;;17.42;6.72;;;11.10;99.90;;;;;;5035436;28;20087;-81
2023/06/04 04:54:09;;;;;;;15.60;6.10;;;11.30;99.90;;;;;;5033370;28;20144;-81
2023/06/04 04:56:35;;;;;;;17.35;6.30;;;11.70;99.90;;;;;;5033647;28;20144;-82
2023/06/04 04:59:01;;;;;;;16.13;5.35;;;12.10;99.90;;;;;;5019157;28;20124;-82
2023/06/04 05:01:27;;;;;;;15.15;5.60;;;12.50;99.90;;;;;;5017722;28;20120;-82
2023/06/04 05:03:53;;;;;;;13.27;5.63;;;12.80;99.90;;;;;;5031245;28;20133;-82
2023/06/04 05:06:22;;;;;;;13.18;4.80;;;13.00;99.90;;;;;;5035204;28;20048;-82
2023/06/04 05:08:48;;;;;;;12.70;4.72;;;13.00;99.90;;;;;;5035423;28;20037;-82
2023/06/04 05:11:14;;;;;;;11.93;4.38;;;13.00;99.90;;;;;;5017500;28;20045;-82
2023/06/04 05:13:41;;;;;;;11.32;5.78;;;13.20;99.90;;;;;;5034508;28;20030;-81
2023/06/04 05:16:07;;;;;;;12.13;5.10;;;13.30;99.90;;;;;;5034993;28;20071;-82
2023/06/04 05:18:34;;;;;;;10.40;3.80;;;13.30;99.90;;;;;;5016938;28;20068;-81
2023/06/04 05:21:02;;;;;;;11.93;4.38;;;13.00;99.90;;;;;;5035290;28;20072;-81
2023/06/04 05:23:29;;;;;;;8.23;4.10;;;12.90;99.90;;;;;;5015848;28;20120;-82
2023/06/04 05:25:55;;;;;;;13.18;4.38;;;12.70;99.90;;;;;;5033607;28;20052;-82
2023/06/04 05:28:25;;;;;;;10.23;4.65;;;12.60;99.90;;;;;;5031418;28;20053;-81
2023/06/04 05:30:58;;;;;;;8.32;3.90;;;12.60;99.90;;;;;;5017836;28;20604;-82
2023/06/04 05:33:28;;;;;;;11.65;4.78;;;12.60;99.90;;;;;;5015457;28;20049;-81
2023/06/04 05:35:54;;;;;;;8.40;3.67;;;12.60;99.90;;;;;;5018050;28;20107;-80
2023/06/04 05:38:25;;;;;;;7.07;3.92;;;12.60;99.90;;;;;;5016706;28;20042;-81
2023/06/04 05:40:55;;;;;;;9.00;4.72;;;12.60;99.90;;;;;;5016070;28;20430;-82
2023/06/04 05:43:21;;;;;;;10.80;4.30;;;12.70;99.90;;;;;;5017757;28;20150;-81
2023/06/04 05:45:47;;;;;;;10.23;4.28;;;12.60;99.90;;;;;;5034465;28;20042;-82
2023/06/04 05:48:13;;;;;;;9.30;4.45;;;12.70;99.90;;;;;;5028018;28;20044;-81
2023/06/04 05:50:39;;;;;;;9.85;4.50;;;12.70;99.90;;;;;;5015455;28;20041;-82
2023/06/04 05:53:05;;;;;;;11.98;4.60;;;12.70;99.90;;;;;;5032092;28;20072;-82
2023/06/04 05:55:31;;;;;;;9.85;5.18;;;12.80;99.90;;;;;;5016334;28;20042;-81
2023/06/04 05:57:56;;;;;;;11.52;5.63;;;12.90;99.90;;;;;;5032979;28;20048;-81
2023/06/04 06:00:23;;;;;;;9.35;4.88;;;13.00;99.90;;;;;;5016946;28;20041;-81
2023/06/04 06:02:53;;;;;;;9.75;5.22;;;13.10;99.90;;;;;;5031305;28;20049;-81
2023/06/04 06:05:21;;;;;;;10.70;5.53;;;13.20;99.90;;;;;;5031649;28;20038;-81
2023/06/04 06:07:47;;;;;;;14.65;6.22;;;13.20;99.90;;;;;;5009534;28;20059;-81
2023/06/04 06:10:15;;;;;;;10.50;5.53;;;13.20;99.90;;;;;;5047647;28;20022;-81
2023/06/04 06:12:41;;;;;;;11.25;5.05;;;13.30;99.90;;;;;;5015882;28;20041;-81
2023/06/04 06:15:07;;;;;;;12.55;5.65;;;13.40;99.90;;;;;;5014409;28;20048;-81
2023/06/04 06:17:33;;;;;;;9.18;5.15;;;13.50;99.90;;;;;;5013228;28;20052;-80
2023/06/04 06:19:59;;;;;;;10.80;5.22;;;13.60;99.90;;;;;;5012172;28;20044;-77
2023/06/04 06:22:25;;;;;;;10.93;5.05;;;13.60;99.90;;;;;;5018766;28;20037;-78
2023/06/04 06:24:51;;;;;;;9.95;5.47;;;13.70;99.90;;;;;;5014461;28;20051;-79
2023/06/04 06:27:17;;;;;;;13.20;5.18;;;13.90;99.90;;;;;;5030431;28;20046;-77
2023/06/04 06:29:43;;;;;;;9.13;4.53;;;14.00;99.90;;;;;;5032360;28;20033;-77
2023/06/04 06:32:10;;;;;;;10.15;4.80;;;14.00;99.90;;;;;;5034746;28;20107;-78
2023/06/04 06:34:37;;;;;;;13.95;4.78;;;14.10;99.90;;;;;;5017701;28;20041;-80
2023/06/04 06:37:03;;;;;;;10.00;4.80;;;14.20;99.90;;;;;;5009197;28;20037;-77
2023/06/04 06:39:28;;;;;;;11.32;4.88;;;14.30;99.90;;;;;;5032164;28;20069;-77
2023/06/04 06:41:54;;;;;;;11.20;4.85;;;14.30;99.90;;;;;;5027306;28;20080;-78
2023/06/04 06:44:20;;;;;;;8.77;4.70;;;14.50;99.90;;;;;;5013597;28;20053;-78
2023/06/04 06:46:48;;;;;;;11.35;4.60;;;14.70;99.90;;;;;;5012633;28;20151;-78
2023/06/04 06:49:15;;;;;;;10.32;3.90;;;14.90;99.90;;;;;;5026910;28;20521;-77
2023/06/04 06:51:41;;;;;;;10.43;4.30;;;14.90;99.90;;;;;;5015664;28;20072;-78
2023/06/04 06:54:10;;;;;;;11.98;3.67;;;15.00;99.90;;;;;;5037707;28;20018;-78
2023/06/04 06:56:36;;;;;;;10.18;3.65;;;15.10;99.90;;;;;;5032738;28;20029;-78
2023/06/04 06:59:01;;;;;;;9.77;3.13;;;15.10;99.90;;;;;;5016309;28;20162;-79
2023/06/04 07:01:27;;;;;;;7.55;3.15;;;15.20;99.90;;;;;;5034699;28;20041;-78
2023/06/04 07:03:53;;;;;;;6.75;2.70;;;15.30;99.90;;;;;;5035068;28;20033;-78
2023/06/04 07:06:19;;;;;;;8.10;2.75;;;15.40;99.90;;;;;;5035142;28;20040;-77
2023/06/04 07:08:47;;;;;;;7.20;2.72;;;15.50;99.90;;;;;;5035979;28;20100;-78
2023/06/04 07:11:14;;;;;;;7.00;2.60;;;15.50;99.90;;;;;;5033003;28;20044;-78
2023/06/04 07:13:39;;;;;;;7.25;2.60;;;15.60;99.90;;;;;;5014635;28;20037;-78
2023/06/04 07:16:06;;;;;;;9.23;2.70;;;15.70;99.90;;;;;;5022581;28;20049;-78
2023/06/04 07:18:32;;;;;;;6.35;2.85;;;15.80;99.90;;;;;;5034371;28;20056;-78
2023/06/04 07:20:58;;;;;;;6.97;2.50;;;15.90;99.90;;;;;;5032058;28;20037;-79
2023/06/04 07:23:24;;;;;;;8.50;2.25;;;16.00;99.90;;;;;;5034395;28;20032;-79
2023/06/04 07:25:52;;;;;;;5.93;2.30;;;16.10;99.90;;;;;;5043474;28;20053;-79
2023/06/04 07:28:18;;;;;;;8.05;1.75;;;16.20;99.90;;;;;;5026391;28;20045;-79
2023/06/04 07:30:46;;;;;;;8.25;1.83;;;16.40;99.90;;;;;;5048346;28;21744;-78
2023/06/04 07:33:15;;;;;;;6.75;2.13;;;16.50;99.90;;;;;;5047617;28;20157;-79
2023/06/04 07:35:40;;;;;;;7.10;1.92;;;16.60;99.90;;;;;;5033709;28;20021;-80
2023/06/04 07:38:06;;;;;;;7.13;2.38;;;16.70;99.90;;;;;;5049746;28;20068;-79
2023/06/04 07:40:32;;;;;;;8.50;2.60;;;16.70;99.90;;;;;;5034942;28;20021;-81
2023/06/04 07:42:58;;;;;;;5.85;1.85;;;16.70;99.90;;;;;;5031438;28;20045;-79
2023/06/04 07:45:24;;;;;;;6.88;1.95;;;16.70;99.90;;;;;;5051529;28;20075;-80
2023/06/04 07:47:52;;;;;;;5.85;1.90;;;16.80;99.90;;;;;;5035025;28;20060;-79
2023/06/04 07:50:18;;;;;;;8.95;1.98;;;16.70;99.90;;;;;;5032867;28;20041;-79
2023/06/04 07:52:44;;;;;;;6.75;1.90;;;16.70;99.90;;;;;;5050596;28;20067;-80
2023/06/04 07:55:09;;;;;;;9.63;2.22;;;16.80;99.90;;;;;;5049949;28;20042;-79
2023/06/04 07:57:36;;;;;;;5.68;1.65;;;17.00;99.90;;;;;;5047815;28;20462;-79
2023/06/04 08:00:04;;;;;;;9.07;1.98;;;17.20;99.90;;;;;;5032090;28;20034;-78
2023/06/04 08:02:30;;;;;;;7.90;2.03;;;17.30;99.90;;;;;;5032130;28;20071;-78
2023/06/04 08:04:56;;;;;;;9.02;4.72;;;17.50;99.90;;;;;;5029236;28;20038;-80
2023/06/04 08:07:22;;;;;;;9.40;1.83;;;17.70;99.90;;;;;;5030591;28;20056;-80
2023/06/04 08:09:47;;;;;;;6.45;1.45;;;17.80;99.90;;;;;;5030807;28;20505;-78
2023/06/04 08:12:13;;;;;;;6.25;1.42;;;18.00;99.90;;;;;;5032003;28;20292;-79
2023/06/04 08:14:39;;;;;;;5.13;1.70;;;18.10;99.90;;;;;;5046058;28;20045;-78
2023/06/04 08:17:05;;;;;;;5.95;1.83;;;18.20;99.90;;;;;;5032555;28;20041;-78
2023/06/04 08:19:30;;;;;;;6.57;1.90;;;18.30;99.90;;;;;;5049012;28;20041;-80
2023/06/04 08:21:56;;;;;;;5.53;1.40;;;18.40;99.90;;;;;;5045473;28;20034;-76
2023/06/04 08:24:22;;;;;;;9.07;2.55;;;18.40;99.90;;;;;;5047911;28;20041;-81
2023/06/04 08:26:48;;;;;;;6.88;1.85;;;18.60;99.90;;;;;;5031653;28;20052;-78
2023/06/04 08:29:13;;;;;;;6.30;1.40;;;18.70;99.90;;;;;;5045823;28;20264;-80
2023/06/04 08:31:39;;;;;;;4.82;1.15;;;18.70;99.90;;;;;;5048391;28;20098;-77
2023/06/04 08:34:05;;;;;;;9.35;1.90;;;18.80;99.90;;;;;;5038398;28;20042;-82
2023/06/04 08:36:32;;;;;;;8.10;1.50;;;18.80;99.90;;;;;;5015250;28;20048;-82
2023/06/04 08:38:58;;;;;;;7.30;1.90;;;18.90;99.90;;;;;;5031675;28;20045;-83
2023/06/04 08:41:27;;;;;;;6.93;1.67;;;18.90;99.90;;;;;;5016786;28;20048;-81
2023/06/04 08:43:56;;;;;;;4.03;1.10;;;19.10;99.90;;;;;;5015979;28;20037;-78
2023/06/04 08:46:23;;;;;;;4.93;1.45;;;19.50;99.90;;;;;;5030268;28;20037;-79
2023/06/04 08:48:53;;;;;;;4.88;1.42;;;19.90;99.90;;;;;;5014666;28;20041;-78
2023/06/04 08:51:23;;;;;;;6.45;1.70;;;20.20;99.90;;;;;;5032938;28;20099;-81
2023/06/04 08:53:53;;;;;;;5.78;1.48;;;20.40;99.20;;;;;;5013293;28;20048;-79
2023/06/04 08:56:22;;;;;;;6.60;1.45;;;20.20;98.70;;;;;;5034585;28;20041;-82
2023/06/04 08:58:48;;;;;;;4.85;1.42;;;20.10;97.30;;;;;;5029336;28;20124;-79
2023/06/04 09:01:14;;;;;;;6.50;1.48;;;20.10;96.40;;;;;;5019491;28;20044;-79
2023/06/04 09:03:41;;;;;;;4.03;1.35;;;20.10;95.10;;;;;;5014391;28;20038;-79
2023/06/04 09:06:08;;;;;;;3.30;0.98;;;20.40;94.10;;;;;;5035021;28;20386;-79
2023/06/04 09:08:37;;;;;;;3.00;0.68;;;20.60;93.90;;;;;;5032424;28;20564;-80
2023/06/04 09:11:09;;;;;;;3.90;1.05;;;21.00;92.30;;;;;;5017436;28;20161;-79
2023/06/04 09:13:36;;;;;;;3.05;0.65;;;21.20;86.90;;;;;;5015384;28;20034;-79
2023/06/04 09:16:03;;;;;;;3.88;0.90;;;21.30;80.70;;;;;;5012816;28;20045;-82
2023/06/04 09:18:29;;;;;;;4.32;0.90;;;21.30;78.70;;;;;;5029039;28;20140;-80
2023/06/04 09:21:07;;;;;;;4.72;1.00;;;21.50;79.30;;;;;;5030231;28;20037;-82
2023/06/04 09:23:51;;;;;;;4.40;1.10;;;21.80;75.90;;;;;;5010439;28;20377;-82
2023/06/04 09:26:16;;;;;;;3.60;1.20;;;21.80;70.60;;;;;;5030170;28;20033;-82
2023/06/04 09:28:46;;;;;;;4.43;1.42;;;21.90;76.80;;;;;;5010540;28;20072;-82
2023/06/04 09:31:16;;;;;;;4.55;1.33;;;21.70;76.00;;;;;;5031860;28;20120;-81
2023/06/04 09:33:49;;;;;;;3.20;0.85;;;21.70;74.80;;;;;;5011236;28;20181;-81
2023/06/04 09:36:18;;;;;;;5.28;1.10;;;21.70;73.30;;;;;;5041658;28;20503;-81
2023/06/04 09:38:45;;;;;;;4.78;1.15;;;21.80;73.20;;;;;;5029957;28;20048;-82
2023/06/04 09:44:05;;;;;;;3.75;1.13;;;22.00;73.80;;;;;;5130414;27;20127;-72
2023/06/04 09:46:31;;;;;;;3.45;1.33;;;22.30;68.50;;;;;;5100341;28;20489;-74
2023/06/04 09:49:02;;;;;;;3.72;0.80;;;22.10;69.00;;;;;;5101638;28;20058;-72
2023/06/04 09:51:29;;;;;;;5.68;1.15;;;22.10;69.70;;;;;;5099244;28;20394;-72
2023/06/04 09:53:56;;;;;;;3.78;1.10;;;22.30;70.30;;;;;;5093229;28;20054;-72
2023/06/04 09:56:22;;;;;;;4.20;0.93;;;22.30;71.50;;;;;;5079907;28;20044;-71
2023/06/04 09:59:00;;;;;;;5.20;1.23;;;22.50;73.00;;;;;;5082181;28;20553;-69
2023/06/04 10:01:28;;;;;;;3.47;1.10;;;22.50;68.70;;;;;;5063630;28;20036;-71
2023/06/04 10:03:55;;;;;;;3.67;1.20;;;22.50;69.10;;;;;;5076302;28;20543;-71
2023/06/04 10:06:21;;;;;;;2.35;0.93;;;22.50;68.20;;;;;;5070567;28;20383;-71
2023/06/04 10:08:49;;;;;;;4.38;1.00;;;22.60;67.20;;;;;;5096665;28;20079;-71
2023/06/04 10:11:21;;;;;;;2.63;1.00;;;22.70;66.70;;;;;;5087961;28;20403;-69
2023/06/04 10:13:53;;;;;;;4.85;0.85;;;23.00;66.90;;;;;;5090411;28;20036;-71
2023/06/04 10:16:20;;;;;;;2.67;0.90;;;23.20;64.10;;;;;;5092925;28;20497;-68
2023/06/04 10:18:46;;;;;;;2.95;0.80;;;23.20;62.00;;;;;;5080726;28;20043;-69
2023/06/04 10:21:14;;;;;;;3.58;0.80;;;23.30;61.20;;;;;;5089034;28;20036;-70
2023/06/04 10:23:44;;;;;;;2.00;1.00;;;23.20;61.20;;;;;;5080460;28;20040;-70
2023/06/04 10:26:16;;;;;;;2.92;0.82;;;23.40;61.00;;;;;;5068695;28;20040;-71
2023/06/04 10:28:43;;;;;;;3.35;0.75;;;23.40;58.30;;;;;;5072301;28;20044;-72
2023/06/04 10:31:12;;;;;;;4.30;0.82;;;23.20;57.50;;;;;;5076148;28;20046;-71
2023/06/04 10:33:39;;;;;;;2.42;0.73;;;23.30;56.80;;;;;;5078992;28;20066;-74
2023/06/04 10:36:19;;;;;;;3.75;0.80;;;23.20;55.10;;;;;;5087388;28;20043;-71
2023/06/04 10:38:55;;;;;;;5.53;1.10;;;23.30;56.20;;;;;;5087171;28;20500;-82
2023/06/04 10:41:22;;;;;;;2.80;0.80;;;23.30;54.80;;;;;;5081980;28;20418;-75
2023/06/04 10:43:49;;;;;;;2.65;0.77;;;23.50;55.30;;;;;;5078632;28;20056;-77
2023/06/04 10:46:20;;;;;;;2.00;0.75;;;23.80;55.80;;;;;;5086081;28;20044;-77
2023/06/04 10:48:53;;;;;;;2.85;0.88;;;24.00;54.00;;;;;;5089760;28;20491;-79
2023/06/04 10:51:37;;;;;;;2.42;0.82;;;23.90;53.70;;;;;;5093699;28;20392;-70
2023/06/04 10:54:03;;;;;;;;;;;24.00;52.00;;;;;;5079982;28;20063;-69
2023/06/04 10:56:31;;;;;;;2.78;0.77;;;23.80;53.50;;;;;;5082691;28;20245;-68
2023/06/04 10:58:58;;;;;;;1.55;0.95;;;23.90;53.70;;;;;;5075671;28;20047;-68
2023/06/04 11:01:28;;;;;;;2.33;0.70;;;23.90;52.60;;;;;;5079079;28;20043;-69
2023/06/04 11:03:55;;;;;;;1.70;0.70;;;24.20;53.40;;;;;;5069084;28;20101;-69
2023/06/04 11:06:22;;;;;;;5.00;1.08;;;24.30;52.30;;;;;;5074753;28;20075;-71
2023/06/04 11:08:48;;;;;;;2.10;0.82;;;24.30;50.70;;;;;;5051503;28;20592;-70
2023/06/04 11:11:15;;;;;;;2.35;1.00;;;24.10;49.10;;;;;;5073164;28;20054;-68
2023/06/04 11:13:44;;;;;;;4.72;0.80;;;24.10;51.00;;;;;;5072921;28;20063;-68
2023/06/04 11:16:20;;;;;;;3.33;0.93;;;24.30;51.80;;;;;;5069554;28;20039;-68
2023/06/04 11:19:02;;;;;;;1.38;0.70;;;24.50;51.20;;;;;;5072456;28;20051;-69
2023/06/04 11:21:27;;;;;;;2.13;0.77;;;24.60;50.70;;;;;;5078006;28;20068;-70
2023/06/04 11:23:59;;;;;;;4.32;0.80;;;24.40;48.30;;;;;;5070745;28;20080;-70
2023/06/04 11:26:36;;;;;;;4.00;0.80;;;24.40;48.70;;;;;;5075318;28;20401;-70
2023/06/04 11:29:06;;;;;;;2.58;0.88;;;24.40;49.10;;;;;;5072334;28;20374;-73
2023/06/04 11:31:46;;;;;;;1.92;0.70;;;24.50;47.40;;;;;;5065216;28;20036;-73
2023/06/04 11:34:32;;;;;;;2.38;0.80;;;24.70;47.50;;;;;;5059706;28;20055;-69
2023/06/04 11:37:10;;;;;;;2.40;0.98;;;24.80;49.60;;;;;;5073467;28;20055;-69
2023/06/04 11:39:39;;;;;;;2.25;0.60;;;24.80;50.20;;;;;;5067997;28;20128;-70
2023/06/04 11:42:06;;;;;;;2.80;0.90;;;24.60;49.00;;;;;;5081669;28;20044;-73
2023/06/04 11:44:33;;;;;;;2.90;1.00;;;24.30;50.10;;;;;;5082766;28;20048;-75
2023/06/04 11:46:59;;;;;;;2.53;0.82;;;24.20;49.70;;;;;;5049378;28;20036;-72
2023/06/04 11:49:26;;;;;;;3.70;0.90;;;24.30;50.70;;;;;;5070192;28;20032;-71
2023/06/04 11:51:52;;;;;;;5.55;1.00;;;24.60;51.00;;;;;;5076860;28;20050;-74
2023/06/04 11:54:22;;;;;;;1.98;0.75;;;24.70;50.80;;;;;;5055112;28;20036;-73
2023/06/04 11:56:52;;;;;;;2.47;0.70;;;24.80;51.40;;;;;;5077818;28;20080;-73
2023/06/04 11:59:18;;;;;;;1.98;0.80;;;24.70;50.50;;;;;;5076015;28;20138;-73
2023/06/04 12:01:45;;;;;;;1.70;0.85;;;24.40;50.90;;;;;;5069081;28;20056;-75
2023/06/04 12:04:19;;;;;;;3.15;0.75;;;24.50;52.20;;;;;;5069560;28;20035;-75
2023/06/04 12:07:02;;;;;;;2.15;0.73;;;24.50;50.30;;;;;;5079363;28;20042;-75
2023/06/04 12:09:39;;;;;;;3.38;1.10;;;24.50;52.10;;;;;;5062435;28;20051;-76
2023/06/04 12:12:07;;;;;;;2.65;0.90;;;24.60;50.90;;;;;;5067902;28;20130;-74
2023/06/04 12:14:33;;;;;;;2.58;1.13;;;24.40;51.90;;;;;;5065204;28;20044;-74
2023/06/04 12:17:07;;;;;;;3.92;0.80;;;24.40;50.00;;;;;;5062453;28;20041;-74
2023/06/04 12:19:33;;;;;;;2.88;0.98;;;24.40;51.10;;;;;;5084343;28;20495;-75
2023/06/04 12:22:04;;;;;;;4.10;0.93;;;24.60;51.50;;;;;;5069097;28;20040;-77
2023/06/04 12:24:31;;;;;;;2.50;0.68;;;24.80;51.10;;;;;;5066226;28;20257;-74
2023/06/04 12:27:04;;;;;;;2.45;1.00;;;24.70;50.70;;;;;;5067712;28;20036;-74
2023/06/04 12:29:30;;;;;;;5.68;2.13;;;24.80;51.00;;;;;;5088056;28;20044;-73
2023/06/04 12:32:11;;;;;;;4.43;1.20;;;24.50;51.40;;;;;;5079974;28;20043;-72
2023/06/04 12:34:37;;;;;;;5.18;1.15;;;24.40;52.90;;;;;;5075111;28;20044;-70
2023/06/04 12:37:05;;;;;;;4.70;1.10;;;24.40;54.80;;;;;;5070088;28;20497;-73
2023/06/04 12:39:32;;;;;;;4.30;0.93;;;24.60;54.50;;;;;;5071144;28;20051;-71
2023/06/04 12:41:57;;;;;;;4.40;1.00;;;24.80;53.90;;;;;;5069174;28;20065;-73
2023/06/04 12:44:23;;;;;;;3.83;1.13;;;24.50;52.70;;;;;;5079637;28;20122;-72
2023/06/04 12:46:50;;;;;;;4.65;1.27;;;24.20;53.90;;;;;;5071017;28;20043;-72
2023/06/04 12:49:16;;;;;;;4.00;1.17;;;24.40;53.60;;;;;;5071012;28;20040;-72
2023/06/04 12:51:41;;;;;;;5.72;2.90;;;24.50;54.40;;;;;;5069995;28;20038;-71